Time;durP1;ratioP1;P1;durP2;ratioP2;P2;SDS_P1;SDS_P2;PMS_P1;PMS_P2;Temp;Humidity;BMP_temperature;BMP_pressure;BME280_temperature;BME280_humidity;BME280_pressure;Samples;Min_cycle;Max_cycle;Signal;HPM_P1;HPM_P2
2022/07/07 00:00:00;;;;;;;6.70;3.42;;;;;;;25.41;41.98;100520.24;1758887;80;21401;-89
2022/07/07 00:02:26;;;;;;;17.10;3.15;;;;;;;25.42;41.97;100516.55;1759048;80;21124;-90
2022/07/07 00:04:54;;;;;;;9.60;4.00;;;;;;;25.41;41.90;100521.09;1758543;80;20834;-90
2022/07/07 00:07:22;;;;;;;6.83;3.02;;;;;;;25.41;41.84;100511.70;1758712;80;20923;-90
2022/07/07 00:09:49;;;;;;;7.65;3.35;;;;;;;25.40;41.72;100501.97;1758968;81;20920;-89
2022/07/07 00:12:16;;;;;;;7.42;3.10;;;;;;;25.39;41.66;100500.31;1759038;81;20979;-89
2022/07/07 00:14:43;;;;;;;2.87;2.67;;;;;;;25.39;41.72;100508.37;1759212;81;21210;-89
2022/07/07 00:17:10;;;;;;;3.83;3.08;;;;;;;25.38;41.82;100496.47;1759305;80;20971;-89
2022/07/07 00:19:38;;;;;;;6.20;3.30;;;;;;;25.37;41.90;100500.20;1758821;81;20928;-90
2022/07/07 00:22:05;;;;;;;10.75;3.80;;;;;;;25.33;41.95;100489.52;1758707;80;20924;-89
2022/07/07 00:24:32;;;;;;;5.58;3.12;;;;;;;25.30;42.02;100497.45;1758615;81;20888;-91
2022/07/07 00:26:59;;;;;;;5.62;4.15;;;;;;;25.28;42.04;100493.27;1758517;81;21276;-90
2022/07/07 00:29:27;;;;;;;14.60;7.87;;;;;;;25.25;42.07;100495.00;1758609;81;20948;-89
2022/07/07 00:31:54;;;;;;;9.13;5.90;;;;;;;25.23;42.10;100498.72;1761017;81;20889;-86
2022/07/07 00:34:21;;;;;;;10.20;4.55;;;;;;;25.21;42.07;100496.73;1761194;80;21269;-86
2022/07/07 00:36:50;;;;;;;5.92;3.10;;;;;;;25.19;42.11;100499.27;1759303;81;21010;-89
2022/07/07 00:39:18;;;;;;;8.85;3.98;;;;;;;25.16;42.16;100499.11;1758872;80;21761;-90
2022/07/07 00:41:45;;;;;;;5.90;3.98;;;;;;;25.13;42.18;100499.50;1758734;81;20845;-89
2022/07/07 00:44:13;;;;;;;6.28;3.47;;;;;;;25.11;42.14;100503.41;1758651;80;20880;-90
2022/07/07 00:46:45;;;;;;;3.33;3.10;;;;;;;25.08;42.08;100507.79;1758409;80;20987;-90
2022/07/07 00:49:12;;;;;;;10.88;3.42;;;;;;;25.06;42.15;100517.88;1758502;80;20916;-91
2022/07/07 00:51:40;;;;;;;12.75;3.40;;;;;;;25.03;42.48;100517.27;1758325;81;21219;-91
2022/07/07 00:54:07;;;;;;;11.30;4.12;;;;;;;24.99;42.67;100515.98;1758606;81;20920;-90
2022/07/07 00:56:34;;;;;;;5.45;3.52;;;;;;;24.96;42.86;100512.31;1758591;81;20899;-90
2022/07/07 00:59:06;;;;;;;3.95;3.52;;;;;;;24.94;43.00;100519.72;1758513;81;20928;-90
2022/07/07 01:01:30;;;;;;;5.12;3.02;;;;;;;24.93;42.97;100522.61;1741995;80;21409;-90
2022/07/07 01:03:58;;;;;;;4.60;3.15;;;;;;;24.92;43.11;100531.17;1760055;81;21199;-90
2022/07/07 01:06:25;;;;;;;6.47;4.12;;;;;;;24.91;43.19;100526.81;1761042;78;20853;-89
2022/07/07 01:08:52;;;;;;;5.42;3.52;;;;;;;24.92;43.23;100524.95;1761368;78;20956;-89
2022/07/07 01:11:19;;;;;;;12.85;3.67;;;;;;;24.91;43.31;100521.45;1761371;80;20893;-90
2022/07/07 01:13:46;;;;;;;11.83;4.15;;;;;;;24.91;43.40;100520.62;1758790;80;20990;-90
2022/07/07 01:16:13;;;;;;;4.75;3.45;;;;;;;24.90;43.50;100521.63;1758742;81;21165;-91
2022/07/07 01:18:41;;;;;;;10.30;4.55;;;;;;;24.89;43.51;100522.14;1758681;81;20925;-89
2022/07/07 01:21:08;;;;;;;8.88;3.60;;;;;;;24.88;43.58;100533.91;1758442;81;20901;-91
2022/07/07 01:23:35;;;;;;;7.87;4.25;;;;;;;24.87;43.60;100526.86;1758383;81;20896;-91
2022/07/07 01:26:03;;;;;;;5.10;3.72;;;;;;;24.87;43.68;100528.20;1759444;81;20908;-91
2022/07/07 01:28:31;;;;;;;5.53;3.17;;;;;;;24.84;44.75;100527.77;1758878;81;21088;-91
2022/07/07 01:30:58;;;;;;;7.87;3.65;;;;;;;24.79;45.70;100527.81;1759706;80;21026;-87
2022/07/07 01:33:25;;;;;;;10.93;3.60;;;;;;;24.74;46.32;100527.52;1761347;81;20870;-89
2022/07/07 01:35:53;;;;;;;5.95;3.67;;;;;;;24.68;45.91;100526.09;1760647;81;20884;-92
2022/07/07 01:38:20;;;;;;;4.58;3.15;;;;;;;24.60;45.31;100525.19;1760246;81;20968;-92
2022/07/07 01:40:48;;;;;;;13.85;3.95;;;;;;;24.55;44.90;100532.14;1759964;81;21190;-89
2022/07/07 01:43:15;;;;;;;10.15;3.80;;;;;;;24.52;44.60;100530.67;1741564;81;20876;-91
2022/07/07 01:45:42;;;;;;;11.97;3.85;;;;;;;24.51;44.58;100532.19;1758462;80;20944;-91
2022/07/07 01:48:09;;;;;;;8.75;3.70;;;;;;;24.49;44.52;100535.05;1758307;80;20975;-91
2022/07/07 01:50:36;;;;;;;5.85;3.52;;;;;;;24.48;44.52;100532.53;1758509;81;20924;-90
2022/07/07 01:53:02;;;;;;;12.43;4.33;;;;;;;24.47;44.54;100534.88;1758419;81;21805;-90
2022/07/07 01:55:30;;;;;;;8.80;3.08;;;;;;;24.47;44.55;100537.05;1758434;81;20976;-92
2022/07/07 01:57:58;;;;;;;7.37;4.12;;;;;;;24.46;44.57;100543.44;1758379;80;20975;-90
2022/07/07 02:00:25;;;;;;;7.65;3.77;;;;;;;24.45;44.62;100540.41;1758436;81;20948;-90
2022/07/07 02:02:52;;;;;;;7.65;4.00;;;;;;;24.44;44.60;100535.26;1758586;81;20924;-89
2022/07/07 02:05:19;;;;;;;8.85;3.40;;;;;;;24.44;44.66;100535.26;1758573;81;21175;-90
2022/07/07 02:07:48;;;;;;;3.83;3.47;;;;;;;24.43;44.63;100537.08;1754159;81;20889;-91
2022/07/07 02:13:01;;;;;;;8.43;3.40;;;;;;;24.41;44.61;100537.28;1746631;78;20925;-89
2022/07/07 02:15:28;;;;;;;6.85;3.35;;;;;;;24.41;44.53;100533.27;1747658;78;20929;-91
2022/07/07 02:17:55;;;;;;;6.08;3.92;;;;;;;24.40;44.45;100532.92;1747431;81;21284;-91
2022/07/07 02:20:22;;;;;;;6.53;3.45;;;;;;;24.42;44.35;100536.77;1744994;81;21389;-90
2022/07/07 02:22:49;;;;;;;5.87;4.08;;;;;;;24.41;44.30;100535.95;1745204;81;20900;-90
2022/07/07 02:25:17;;;;;;;10.78;3.70;;;;;;;24.44;44.28;100536.59;1745127;81;20936;-90
2022/07/07 02:27:44;;;;;;;5.97;3.35;;;;;;;24.44;44.08;100533.92;1745206;82;20926;-90
2022/07/07 02:30:12;;;;;;;7.22;4.22;;;;;;;24.45;43.93;100536.39;1745120;80;21080;-88
2022/07/07 02:32:39;;;;;;;6.15;3.87;;;;;;;24.47;43.80;100539.72;1747483;81;20925;-87
2022/07/07 02:35:08;;;;;;;3.67;3.30;;;;;;;24.49;44.59;100536.38;1747877;81;21288;-86
2022/07/07 02:37:36;;;;;;;10.13;4.03;;;;;;;24.50;45.37;100539.41;1746446;82;20897;-91
2022/07/07 02:40:04;;;;;;;9.55;5.12;;;;;;;24.48;47.17;100537.41;1746692;81;20882;-91
2022/07/07 02:42:31;;;;;;;8.33;3.50;;;;;;;24.46;48.27;100539.93;1745913;81;21132;-90
2022/07/07 02:44:58;;;;;;;6.67;3.52;;;;;;;24.41;49.08;100540.45;1745176;81;20967;-91
2022/07/07 02:47:25;;;;;;;12.63;4.65;;;;;;;24.34;49.62;100535.00;1745313;82;20862;-90
2022/07/07 02:49:52;;;;;;;11.57;4.35;;;;;;;24.32;48.56;100543.76;1745217;82;20881;-90
2022/07/07 02:52:19;;;;;;;8.38;3.83;;;;;;;24.28;49.51;100539.78;1745333;81;20933;-91
2022/07/07 02:54:46;;;;;;;4.97;4.12;;;;;;;24.27;50.32;100542.63;1745138;80;21220;-92
2022/07/07 02:57:13;;;;;;;9.85;4.65;;;;;;;24.24;50.90;100547.03;1745135;81;20881;-91
2022/07/07 02:59:40;;;;;;;27.87;9.08;;;;;;;24.21;51.36;100546.86;1745167;81;20988;-91
2022/07/07 03:02:07;;;;;;;10.85;6.58;;;;;;;24.15;51.74;100543.59;1745088;81;20984;-91
2022/07/07 03:04:34;;;;;;;5.20;4.05;;;;;;;24.10;52.24;100547.31;1745753;81;20920;-90
2022/07/07 03:07:01;;;;;;;7.67;4.10;;;;;;;24.05;50.60;100550.54;1745703;81;21223;-89
2022/07/07 03:09:28;;;;;;;13.18;4.78;;;;;;;24.02;49.47;100548.23;1745024;81;20913;-91
2022/07/07 03:11:56;;;;;;;5.35;4.70;;;;;;;24.03;50.01;100551.22;1745097;80;20936;-92
2022/07/07 03:14:24;;;;;;;6.58;4.90;;;;;;;24.04;49.77;100545.38;1745293;81;21375;-91
2022/07/07 03:16:51;;;;;;;10.82;3.92;;;;;;;24.05;50.29;100551.05;1734870;82;21888;-90
2022/07/07 03:19:18;;;;;;;9.75;4.55;;;;;;;24.06;49.74;100545.52;1745203;81;21123;-91
2022/07/07 03:21:45;;;;;;;8.58;4.87;;;;;;;24.08;50.96;100546.17;1745311;81;20917;-91
2022/07/07 03:24:12;;;;;;;7.85;3.65;;;;;;;24.08;51.28;100548.86;1745206;81;20925;-92
2022/07/07 03:26:40;;;;;;;8.85;4.80;;;;;;;24.09;50.45;100552.36;1745272;82;20932;-90
2022/07/07 03:29:07;;;;;;;6.97;3.50;;;;;;;24.10;51.03;100549.51;1745504;82;20968;-91
2022/07/07 03:31:34;;;;;;;9.45;4.28;;;;;;;24.13;51.07;100553.66;1747444;82;21190;-89
2022/07/07 03:34:01;;;;;;;10.03;4.00;;;;;;;24.15;51.21;100551.64;1747830;78;21011;-88
2022/07/07 03:36:30;;;;;;;7.28;3.77;;;;;;;24.17;50.52;100553.62;1747673;82;20972;-88
2022/07/07 03:38:57;;;;;;;8.23;4.03;;;;;;;24.19;51.82;100555.63;1747668;78;20983;-90
2022/07/07 03:41:24;;;;;;;13.58;4.08;;;;;;;24.23;51.98;100560.09;1747659;78;20818;-92
2022/07/07 03:43:51;;;;;;;12.53;3.70;;;;;;;24.26;52.44;100562.42;1746106;79;21201;-92
2022/07/07 03:46:18;;;;;;;12.23;4.42;;;;;;;24.30;52.88;100570.39;1745329;81;20842;-92
2022/07/07 03:48:45;;;;;;;4.87;3.17;;;;;;;24.31;53.21;100566.20;1745118;81;20881;-92
2022/07/07 03:51:12;;;;;;;7.42;3.27;;;;;;;24.34;52.18;100573.04;1744904;80;20897;-91
2022/07/07 03:53:40;;;;;;;7.53;3.75;;;;;;;24.37;51.13;100568.16;1745393;80;20988;-92
2022/07/07 03:56:07;;;;;;;10.90;4.25;;;;;;;24.44;49.15;100568.77;1745904;81;21125;-91
2022/07/07 03:58:34;;;;;;;10.65;4.75;;;;;;;24.52;51.17;100568.20;1745912;81;20869;-89
2022/07/07 04:01:00;;;;;;;9.45;3.90;;;;;;;24.59;51.88;100570.46;1747690;81;20995;-89
2022/07/07 04:03:28;;;;;;;10.63;4.42;;;;;;;24.66;52.20;100571.89;1746542;81;20979;-91
2022/07/07 04:05:55;;;;;;;12.50;4.72;;;;;;;24.73;52.46;100571.98;1745343;81;20888;-92
2022/07/07 04:08:22;;;;;;;5.37;3.72;;;;;;;24.79;52.36;100565.88;1745367;82;21261;-91
2022/07/07 04:10:49;;;;;;;12.95;3.20;;;;;;;24.87;51.34;100571.64;1745404;81;20976;-91
2022/07/07 04:13:16;;;;;;;8.70;3.60;;;;;;;24.96;49.06;100565.15;1745587;80;20968;-90
2022/07/07 04:15:44;;;;;;;7.90;3.27;;;;;;;25.10;49.14;100566.13;1745519;82;20853;-90
2022/07/07 04:18:12;;;;;;;10.38;4.22;;;;;;;25.33;46.96;100572.22;1745490;82;20884;-89
2022/07/07 04:20:39;;;;;;;10.72;4.22;;;;;;;25.67;47.11;100568.53;1745294;80;21237;-90
2022/07/07 04:23:06;;;;;;;7.35;3.65;;;;;;;26.06;45.07;100565.39;1745184;81;20988;-92
2022/07/07 04:25:33;;;;;;;6.35;3.27;;;;;;;26.52;43.81;100566.19;1745408;81;20853;-93
2022/07/07 04:28:00;;;;;;;5.22;3.15;;;;;;;27.06;43.38;100565.45;1745539;81;20866;-90
2022/07/07 04:30:27;;;;;;;6.30;3.27;;;;;;;27.59;41.61;100572.87;1745664;82;20992;-89
2022/07/07 04:32:54;;;;;;;7.08;2.95;;;;;;;28.10;40.50;100570.09;1747285;81;21041;-90
2022/07/07 04:35:21;;;;;;;6.85;3.08;;;;;;;28.59;39.33;100566.62;1747419;81;20889;-90
2022/07/07 04:37:48;;;;;;;10.78;3.10;;;;;;;29.08;38.61;100571.92;1746680;81;20909;-91
2022/07/07 04:40:15;;;;;;;9.75;3.20;;;;;;;29.53;37.97;100567.88;1745617;81;21312;-91
2022/07/07 04:42:42;;;;;;;4.33;3.92;;;;;;;29.99;37.03;100570.75;1745424;81;20857;-90
2022/07/07 04:45:10;;;;;;;9.05;3.72;;;;;;;30.40;36.93;100569.36;1745588;82;21118;-90
2022/07/07 04:47:40;;;;;;;5.95;3.92;;;;;;;30.81;36.18;100575.14;1745416;81;20968;-93
2022/07/07 04:50:13;;;;;;;9.20;4.55;;;;;;;31.16;34.36;100569.39;1745364;81;21485;-91
2022/07/07 04:52:40;;;;;;;8.20;3.98;;;;;;;31.47;33.90;100571.59;1745762;81;20941;-90
2022/07/07 04:55:08;;;;;;;11.22;4.05;;;;;;;31.79;33.53;100576.72;1745806;80;20972;-91
2022/07/07 04:57:35;;;;;;;10.13;4.70;;;;;;;32.10;33.10;100575.59;1745863;81;21260;-93
2022/07/07 05:00:03;;;;;;;7.83;3.62;;;;;;;32.41;32.46;100569.51;1745596;81;20850;-91
2022/07/07 05:02:30;;;;;;;8.38;4.05;;;;;;;32.70;32.53;100571.78;1745565;81;20865;-93
2022/07/07 05:04:58;;;;;;;7.62;4.30;;;;;;;33.01;32.07;100571.86;1745591;81;21035;-91
2022/07/07 05:07:25;;;;;;;10.10;3.42;;;;;;;33.31;31.84;100576.27;1745410;81;21379;-91
2022/07/07 05:09:52;;;;;;;9.25;3.98;;;;;;;33.59;31.02;100571.88;1745178;80;21731;-92
2022/07/07 05:12:19;;;;;;;12.47;4.58;;;;;;;33.89;30.77;100574.83;1750151;80;20920;-93
2022/07/07 05:14:48;;;;;;;15.38;4.70;;;;;;;34.16;29.92;100570.37;1758513;80;20944;-92
2022/07/07 05:17:15;;;;;;;12.37;3.52;;;;;;;34.42;28.39;100570.73;1759170;81;20935;-92
2022/07/07 05:19:43;;;;;;;7.65;3.05;;;;;;;34.55;27.50;100571.73;1758526;81;20932;-92
2022/07/07 05:22:09;;;;;;;8.50;2.80;;;;;;;34.69;26.96;100576.28;1758521;81;21221;-92
2022/07/07 05:24:37;;;;;;;5.22;2.67;;;;;;;34.76;26.17;100578.82;1758924;81;20976;-92
2022/07/07 05:27:05;;;;;;;7.05;2.83;;;;;;;34.78;25.54;100570.67;1758561;81;20865;-92
2022/07/07 05:29:32;;;;;;;5.25;2.45;;;;;;;34.75;25.35;100575.28;1759253;81;20880;-91
2022/07/07 05:31:59;;;;;;;10.40;3.35;;;;;;;34.78;25.21;100573.94;1759810;80;20940;-90
2022/07/07 05:34:26;;;;;;;7.58;4.37;;;;;;;34.81;24.67;100568.79;1761214;80;21147;-91
2022/07/07 05:36:52;;;;;;;6.42;3.60;;;;;;;34.91;24.16;100573.55;1761148;80;20912;-93
2022/07/07 05:39:20;;;;;;;13.48;11.08;;;;;;;35.08;24.10;100571.56;1759746;80;20975;-92
2022/07/07 05:41:46;;;;;;;13.08;4.65;;;;;;;35.37;24.51;100575.41;1759280;81;21753;-92
2022/07/07 05:44:13;;;;;;;4.10;2.50;;;;;;;35.67;24.12;100576.26;1759149;78;20905;-93
2022/07/07 05:46:41;;;;;;;8.95;1.85;;;;;;;35.91;23.41;100575.91;1759464;80;21421;-92
2022/07/07 05:49:08;;;;;;;8.70;2.37;;;;;;;36.09;23.25;100578.20;1758717;80;20936;-92
2022/07/07 05:51:35;;;;;;;6.53;2.10;;;;;;;36.30;23.01;100582.45;1759377;81;20882;-93
2022/07/07 05:54:03;;;;;;;6.95;2.60;;;;;;;36.46;22.46;100583.34;1759409;81;20849;-92
2022/07/07 05:56:30;;;;;;;2.45;2.05;;;;;;;36.52;22.51;100580.92;1759050;81;21092;-93
2022/07/07 05:58:57;;;;;;;5.47;2.22;;;;;;;36.63;22.37;100579.09;1759245;81;21355;-91
2022/07/07 06:01:24;;;;;;;5.03;1.90;;;;;;;36.71;21.68;100572.58;1759676;81;20877;-91
2022/07/07 06:03:51;;;;;;;5.47;1.87;;;;;;;36.75;21.48;100578.86;1759614;80;20897;-91
2022/07/07 06:06:18;;;;;;;4.10;2.10;;;;;;;36.80;22.36;100576.98;1760831;81;20865;-90
2022/07/07 06:08:47;;;;;;;3.87;2.52;;;;;;;37.02;22.41;100571.30;1758411;78;20924;-91
2022/07/07 06:11:14;;;;;;;8.70;2.08;;;;;;;37.28;22.00;100577.66;1761228;78;21035;-92
2022/07/07 06:13:41;;;;;;;6.60;2.35;;;;;;;37.53;22.40;100570.03;1749523;80;20866;-93
2022/07/07 06:16:09;;;;;;;7.22;2.00;;;;;;;37.73;21.73;100571.98;1746508;81;20937;-93
2022/07/07 06:18:35;;;;;;;7.00;2.40;;;;;;;37.91;21.81;100571.95;1746129;82;20929;-91
2022/07/07 06:21:03;;;;;;;5.65;1.85;;;;;;;38.06;21.75;100565.64;1746918;81;20893;-92
2022/07/07 06:23:30;;;;;;;4.20;2.40;;;;;;;38.28;21.80;100565.87;1746431;81;21123;-90
2022/07/07 06:25:57;;;;;;;6.30;2.62;;;;;;;38.46;22.52;100560.33;1746035;80;20916;-92
2022/07/07 06:28:24;;;;;;;6.33;2.45;;;;;;;38.69;22.12;100566.57;1746130;80;20937;-93
2022/07/07 06:30:51;;;;;;;6.97;3.20;;;;;;;38.89;21.00;100564.27;1746004;80;20924;-92
2022/07/07 06:33:18;;;;;;;11.88;2.80;;;;;;;39.05;21.23;100562.28;1747109;82;20830;-90
2022/07/07 06:35:45;;;;;;;9.83;2.45;;;;;;;39.22;21.59;100561.06;1747336;81;21389;-88
2022/07/07 06:38:12;;;;;;;4.70;2.25;;;;;;;39.43;21.49;100563.96;1747412;82;20885;-88
2022/07/07 06:40:40;;;;;;;3.10;2.20;;;;;;;39.60;20.97;100560.81;1747988;79;20877;-92
2022/07/07 06:43:06;;;;;;;5.97;1.52;;;;;;;39.75;20.77;100566.14;1748206;78;21035;-92
2022/07/07 06:45:33;;;;;;;5.25;1.32;;;;;;;39.92;20.58;100563.55;1746954;80;20996;-90
2022/07/07 06:48:00;;;;;;;6.25;3.27;;;;;;;40.11;19.07;100560.34;1745767;81;21871;-90
2022/07/07 06:50:28;;;;;;;6.97;1.90;;;;;;;40.24;18.21;100560.73;1747005;82;20992;-91
2022/07/07 06:52:56;;;;;;;6.50;1.87;;;;;;;40.36;17.92;100558.44;1746770;81;21359;-90
2022/07/07 06:55:23;;;;;;;12.63;2.00;;;;;;;40.51;17.31;100567.02;1745873;79;20944;-92
2022/07/07 06:57:49;;;;;;;6.45;1.60;;;;;;;40.64;16.89;100570.99;1746118;80;21362;-89
2022/07/07 07:00:17;;;;;;;6.12;1.30;;;;;;;40.72;17.31;100569.00;1745776;82;21230;-92
2022/07/07 07:02:44;;;;;;;3.12;1.12;;;;;;;40.74;16.68;100566.77;1745456;81;21374;-92
2022/07/07 07:05:11;;;;;;;2.77;1.32;;;;;;;40.56;16.84;100563.67;1745321;81;20944;-92
2022/07/07 07:07:39;;;;;;;8.43;1.40;;;;;;;40.54;16.97;100570.02;1745289;81;21065;-90
2022/07/07 07:10:07;;;;;;;6.17;1.62;;;;;;;40.61;16.61;100568.28;1745418;81;21358;-91
2022/07/07 07:12:35;;;;;;;3.70;1.25;;;;;;;40.67;17.26;100571.23;1745354;81;21243;-91
2022/07/07 07:15:02;;;;;;;5.72;1.10;;;;;;;40.78;16.80;100564.51;1745064;81;21531;-90
2022/07/07 07:17:30;;;;;;;7.22;2.08;;;;;;;40.84;17.16;100561.68;1745546;81;20897;-91
2022/07/07 07:19:59;;;;;;;5.85;1.80;;;;;;;40.96;16.93;100567.56;1745437;80;20944;-91
2022/07/07 07:22:26;;;;;;;6.92;1.65;;;;;;;41.09;16.71;100557.19;1746054;81;20885;-91
2022/07/07 07:24:54;;;;;;;4.22;1.80;;;;;;;41.19;16.67;100563.11;1745731;79;21350;-90
2022/07/07 07:27:21;;;;;;;7.85;1.22;;;;;;;41.30;16.76;100567.34;1745316;80;20921;-91
2022/07/07 07:29:48;;;;;;;3.45;1.15;;;;;;;41.43;15.92;100563.82;1745153;82;21007;-89
2022/07/07 07:32:14;;;;;;;3.92;1.50;;;;;;;41.45;15.91;100562.72;1745706;81;20897;-89
2022/07/07 07:34:42;;;;;;;7.25;1.60;;;;;;;41.46;15.67;100560.20;1746439;81;20940;-89
2022/07/07 07:37:09;;;;;;;6.28;1.42;;;;;;;41.52;15.02;100561.20;1746222;81;21119;-88
2022/07/07 07:39:36;;;;;;;4.72;1.32;;;;;;;41.48;15.34;100562.10;1746324;82;20885;-91
2022/07/07 07:42:03;;;;;;;7.92;1.25;;;;;;;41.56;15.76;100562.83;1745487;81;20909;-91
2022/07/07 07:47:16;;;;;;;4.12;1.50;;;;;;;41.95;15.65;100559.62;1745672;81;20881;-91
2022/07/07 07:49:45;;;;;;;6.95;0.98;;;;;;;42.17;15.12;100562.27;1745682;82;20881;-90
2022/07/07 07:52:11;;;;;;;4.70;1.30;;;;;;;42.31;14.95;100562.27;1745559;81;20937;-88
2022/07/07 07:54:39;;;;;;;7.50;1.40;;;;;;;42.40;14.37;100565.97;1746811;81;20893;-88
2022/07/07 07:57:06;;;;;;;6.22;1.40;;;;;;;42.40;14.53;100564.05;1745732;81;20861;-90
2022/07/07 07:59:33;;;;;;;4.83;1.00;;;;;;;42.52;14.61;100564.08;1745423;81;20859;-90
2022/07/07 08:02:00;;;;;;;4.05;0.93;;;;;;;42.66;14.73;100569.00;1745480;81;21212;-90
2022/07/07 08:04:27;;;;;;;3.60;1.10;;;;;;;42.79;14.45;100570.91;1745463;81;21004;-90
2022/07/07 08:06:54;;;;;;;6.10;1.40;;;;;;;42.86;13.74;100560.86;1745506;81;20928;-90
2022/07/07 08:09:21;;;;;;;2.02;1.27;;;;;;;42.83;14.26;100565.06;1745258;81;20897;-94
2022/07/07 08:11:48;;;;;;;6.78;1.10;;;;;;;42.84;13.38;100564.49;1745807;82;20972;-91
2022/07/07 08:14:15;;;;;;;3.58;1.27;;;;;;;42.82;13.00;100566.20;1755633;80;21149;-89
2022/07/07 08:16:42;;;;;;;7.17;1.05;;;;;;;42.76;12.90;100561.08;1758619;81;21402;-90
2022/07/07 08:19:09;;;;;;;6.42;1.15;;;;;;;42.73;14.09;100565.25;1758892;80;20995;-90
2022/07/07 08:21:37;;;;;;;3.00;1.02;;;;;;;42.83;13.82;100562.30;1758505;81;20935;-91
2022/07/07 08:24:05;;;;;;;4.85;0.80;;;;;;;42.99;13.78;100557.81;1758540;81;20928;-91
2022/07/07 08:26:32;;;;;;;4.33;0.90;;;;;;;43.04;13.32;100553.55;1758417;81;21079;-93
2022/07/07 08:28:59;;;;;;;4.40;0.98;;;;;;;43.16;13.27;100559.34;1758549;81;21429;-91
2022/07/07 08:31:26;;;;;;;4.05;1.32;;;;;;;43.14;12.18;100559.41;1758495;80;20919;-90
2022/07/07 08:33:53;;;;;;;3.60;1.07;;;;;;;42.96;12.53;100557.88;1758832;81;20896;-91
2022/07/07 08:36:21;;;;;;;2.12;0.90;;;;;;;42.93;12.40;100557.67;1760321;81;20940;-89
2022/07/07 08:38:49;;;;;;;7.85;1.45;;;;;;;42.85;12.73;100566.14;1760174;80;21177;-90
2022/07/07 08:41:16;;;;;;;5.95;1.12;;;;;;;42.87;12.96;100557.53;1758973;81;20857;-91
2022/07/07 08:43:43;;;;;;;5.35;1.30;;;;;;;42.94;13.36;100553.80;1758985;81;20971;-90
2022/07/07 08:46:10;;;;;;;3.25;1.15;;;;;;;43.02;13.29;100553.88;1758905;80;20983;-92
2022/07/07 08:48:40;;;;;;;5.15;1.25;;;;;;;43.14;13.08;100553.31;1758641;80;20940;-91
2022/07/07 08:51:10;;;;;;;5.05;1.12;;;;;;;43.31;13.10;100558.73;1758871;81;21228;-92
2022/07/07 08:53:39;;;;;;;3.00;1.35;;;;;;;43.46;13.23;100549.48;1758895;80;20952;-91
2022/07/07 08:56:07;;;;;;;7.05;1.10;;;;;;;43.65;12.72;100554.84;1758621;81;20912;-90
2022/07/07 08:58:35;;;;;;;4.33;0.93;;;;;;;43.78;12.45;100553.67;1758323;80;20897;-92
2022/07/07 09:01:04;;;;;;;9.43;1.52;;;;;;;43.88;12.28;100549.26;1758553;81;20880;-91
2022/07/07 09:03:32;;;;;;;4.55;1.07;;;;;;;43.95;11.97;100542.70;1758519;80;21134;-91
2022/07/07 09:05:59;;;;;;;4.87;1.05;;;;;;;43.82;12.03;100544.42;1758633;80;20920;-91
2022/07/07 09:08:27;;;;;;;6.35;1.20;;;;;;;43.74;12.53;100545.22;1758740;81;20943;-91
2022/07/07 09:10:55;;;;;;;2.92;0.93;;;;;;;43.80;12.28;100545.87;1758854;81;20908;-89
2022/07/07 09:13:25;;;;;;;3.55;0.90;;;;;;;43.80;11.93;100543.12;1755489;80;20924;-91
2022/07/07 09:15:55;;;;;;;3.45;1.02;;;;;;;43.74;12.04;100551.32;1745600;81;21917;-91
2022/07/07 09:18:39;;;;;;;2.65;1.20;;;;;;;43.55;12.05;100539.06;1745458;81;20921;-88
2022/07/07 09:21:28;;;;;;;7.33;0.95;;;;;;;43.42;11.97;100546.30;1745786;81;20853;-91
2022/07/07 09:23:59;;;;;;;3.02;1.20;;;;;;;43.24;12.48;100538.46;1745526;81;21042;-88
2022/07/07 09:26:48;;;;;;;7.85;1.30;;;;;;;43.23;12.25;100545.13;1745030;81;20858;-87
2022/07/07 09:29:20;;;;;;;7.95;0.90;;;;;;;43.16;12.46;100544.73;1745715;81;21865;-89
2022/07/07 09:32:04;;;;;;;5.40;1.30;;;;;;;43.01;12.15;100556.94;1745293;81;21015;-91
2022/07/07 09:34:34;;;;;;;3.10;1.37;;;;;;;42.85;12.23;100544.88;1745244;82;20932;-89
2022/07/07 09:39:54;;;;;;;1.90;1.35;;;;;;;42.51;12.50;100541.75;1745997;81;20881;-88
2022/07/07 09:42:32;;;;;;;9.48;1.52;;;;;;;42.53;12.86;100543.64;1745828;81;21170;-92
2022/07/07 09:45:05;;;;;;;6.00;1.95;;;;;;;42.55;12.80;100540.02;1745979;81;21434;-92
2022/07/07 09:47:35;;;;;;;3.72;1.20;;;;;;;42.66;13.10;100538.66;1745373;81;20960;-90
2022/07/07 09:50:12;;;;;;;8.48;1.42;;;;;;;42.74;12.30;100543.45;1745384;81;20917;-91
2022/07/07 09:52:45;;;;;;;4.47;1.30;;;;;;;42.58;12.48;100538.84;1745364;80;20995;-92
2022/07/07 09:55:12;;;;;;;4.87;1.27;;;;;;;42.45;12.40;100530.03;1745493;80;21135;-88
2022/07/07 09:57:40;;;;;;;6.72;2.40;;;;;;;42.37;12.42;100528.77;1745545;81;20893;-91
2022/07/07 10:00:08;;;;;;;3.90;1.20;;;;;;;42.34;13.02;100527.20;1745411;81;21003;-92
2022/07/07 10:02:42;;;;;;;4.62;1.02;;;;;;;42.29;12.48;100536.95;1745026;81;20976;-89
2022/07/07 10:05:09;;;;;;;1.98;1.10;;;;;;;42.14;12.14;100532.02;1745437;81;21397;-90
2022/07/07 10:07:37;;;;;;;5.12;1.25;;;;;;;42.04;12.41;100517.05;1745435;82;21398;-88
2022/07/07 10:10:08;;;;;;;2.37;0.93;;;;;;;42.02;12.53;100535.29;1745365;80;20853;-93
2022/07/07 10:12:49;;;;;;;7.25;1.05;;;;;;;41.99;12.27;100518.53;1746167;81;20845;-89
2022/07/07 10:15:15;;;;;;;3.30;1.35;;;;;;;42.05;12.68;100522.83;1737836;81;20932;-90
2022/07/07 10:17:43;;;;;;;2.40;1.15;;;;;;;42.09;12.63;100523.02;1756372;80;20897;-91
2022/07/07 10:20:11;;;;;;;4.55;1.10;;;;;;;42.21;13.30;100515.88;1757400;78;21138;-89
2022/07/07 10:22:45;;;;;;;5.60;1.57;;;;;;;42.34;12.53;100508.72;1758036;79;20963;-90
2022/07/07 10:25:09;;;;;;;5.92;1.25;;;;;;;42.35;12.15;100513.66;1738838;81;20983;-90
2022/07/07 10:27:44;;;;;;;3.72;1.25;;;;;;;42.23;12.28;100513.62;1755506;80;20884;-89
2022/07/07 10:30:28;;;;;;;1.77;1.07;;;;;;;42.18;12.79;100523.39;1738390;81;20904;-88
2022/07/07 10:32:55;;;;;;;6.85;1.22;;;;;;;42.20;12.01;100520.30;1755747;80;21350;-88
2022/07/07 10:35:25;;;;;;;4.97;1.25;;;;;;;42.07;12.20;100518.37;1737457;80;20885;-90
2022/07/07 10:37:55;;;;;;;16.73;13.50;;;;;;;41.93;12.72;100514.21;1754076;81;20900;-90
2022/07/07 10:40:27;;;;;;;25.30;23.00;;;;;;;41.80;13.06;100514.45;1757084;81;20841;-90
2022/07/07 10:43:24;;;;;;;3.62;1.82;;;;;;;41.86;13.04;100513.23;1755959;81;20932;-90
2022/07/07 10:45:52;;;;;;;3.98;1.12;;;;;;;42.07;12.74;100507.34;1755464;80;21479;-91
2022/07/07 10:48:50;;;;;;;6.10;5.60;;;;;;;42.10;13.57;100517.20;1755534;81;20924;-89
2022/07/07 10:51:22;;;;;;;4.60;1.07;;;;;;;42.12;13.44;100508.08;1737260;82;20946;-91
2022/07/07 10:54:03;;;;;;;;;;;;;;;42.14;12.73;100511.34;1739881;81;20998;-91
2022/07/07 10:56:59;;;;;;;1.82;0.95;;;;;;;42.13;12.31;100512.45;1737041;82;20059;-89
2022/07/07 10:59:26;;;;;;;3.22;1.10;;;;;;;42.11;11.96;100507.80;1722820;81;21146;-88
2022/07/07 11:02:04;;;;;;;1.87;0.85;;;;;;;42.04;12.02;100517.86;1713234;82;20927;-88
2022/07/07 11:04:51;;;;;;;5.95;1.12;;;;;;;41.94;11.93;100497.95;1708638;81;20993;-89
2022/07/07 11:07:21;;;;;;;5.03;1.17;;;;;;;41.89;12.54;100503.00;1737030;81;21013;-89
2022/07/07 11:10:10;;;;;;;3.52;0.90;;;;;;;41.94;11.83;100507.59;1737210;81;20902;-93
2022/07/07 11:12:44;;;;;;;4.15;0.98;;;;;;;41.85;12.06;100495.09;1737637;82;21123;-88
2022/07/07 11:15:20;;;;;;;3.27;0.80;;;;;;;41.74;12.29;100505.48;1737236;81;21083;-91
2022/07/07 11:17:56;;;;;;;4.40;2.20;;;;;;;41.66;12.58;100503.42;1737291;81;21037;-90
2022/07/07 11:20:29;;;;;;;1.87;0.88;;;;;;;41.65;12.69;100492.16;1732031;81;21001;-91
2022/07/07 11:26:23;;;;;;;2.17;1.20;;;;;;;41.74;11.79;100493.66;1798532;79;23025;-92
2022/07/07 11:28:58;;;;;;;3.60;1.22;;;;;;;41.47;11.96;100491.09;1759603;80;21336;-92
2022/07/07 11:31:28;;;;;;;4.25;0.90;;;;;;;41.25;12.89;100489.55;1759480;80;21973;-90
2022/07/07 11:33:56;;;;;;;6.60;1.13;;;;;;;41.14;12.82;100486.16;1760005;80;20979;-91
2022/07/07 11:36:28;;;;;;;4.97;1.95;;;;;;;40.98;12.73;100480.87;1760101;80;20884;-90
2022/07/07 11:39:00;;;;;;;4.72;3.33;;;;;;;40.78;12.43;100477.87;1760098;80;20947;-90
2022/07/07 11:41:41;;;;;;;3.35;1.07;;;;;;;40.41;12.28;100489.64;1759417;80;20900;-90